Time;durP1;ratioP1;P1;durP2;ratioP2;P2;SDS_P1;SDS_P2;PMS_P1;PMS_P2;Temp;Humidity;BMP_temperature;BMP_pressure;BME280_temperature;BME280_humidity;BME280_pressure;Samples;Min_cycle;Max_cycle;Signal;HPM_P1;HPM_P2
2022/12/11 00:01:38;;;;;;;3.65;3.33;;;-2.00;99.90;;;;;;5048498;28;20198;-71
2022/12/11 00:04:05;;;;;;;1.40;1.30;;;;;;;;;;5049103;28;20203;-71
2022/12/11 00:06:32;;;;;;;3.55;3.35;;;-2.10;99.90;;;;;;5048547;28;20202;-70
2022/12/11 00:08:58;;;;;;;3.25;2.35;;;-2.10;99.90;;;;;;5048956;28;20200;-71
2022/12/11 00:11:25;;;;;;;1.65;1.65;;;-2.10;99.90;;;;;;5049106;28;20227;-70
2022/12/11 00:13:52;;;;;;;1.13;1.00;;;-2.20;99.90;;;;;;5048566;28;20207;-70
2022/12/11 00:16:20;;;;;;;2.53;2.42;;;-2.30;99.90;;;;;;5048194;28;20202;-71
2022/12/11 00:18:47;;;;;;;0.68;0.68;;;-2.30;99.90;;;;;;5048372;28;20629;-71
2022/12/11 00:21:15;;;;;;;0.98;0.98;;;-2.30;99.90;;;;;;5048571;28;20197;-70
2022/12/11 00:23:42;;;;;;;1.88;1.77;;;-2.30;99.90;;;;;;5048680;28;20203;-70
2022/12/11 00:26:12;;;;;;;1.73;1.48;;;-2.40;99.90;;;;;;5048464;28;20208;-72
2022/12/11 00:28:39;;;;;;;1.23;1.23;;;-2.40;99.90;;;;;;5048422;28;20204;-70
2022/12/11 00:31:08;;;;;;;2.42;2.28;;;-2.40;99.90;;;;;;5048399;28;20229;-70
2022/12/11 00:33:36;;;;;;;2.92;2.45;;;-2.50;99.90;;;;;;5048198;28;20192;-70
2022/12/11 00:36:04;;;;;;;1.00;1.00;;;-2.50;99.90;;;;;;5047734;28;20647;-71
2022/12/11 00:38:31;;;;;;;6.70;2.63;;;-2.60;99.90;;;;;;5048661;28;20208;-70
2022/12/11 00:40:59;;;;;;;1.60;1.60;;;-2.70;99.90;;;;;;5048444;28;20199;-71
2022/12/11 00:43:25;;;;;;;5.80;3.38;;;-2.60;99.90;;;;;;5048174;28;20572;-69
2022/12/11 00:45:52;;;;;;;2.13;2.03;;;-2.50;99.90;;;;;;5046912;28;20203;-71
2022/12/11 00:48:19;;;;;;;2.00;1.92;;;-2.40;99.90;;;;;;5048679;28;20200;-71
2022/12/11 00:50:47;;;;;;;0.60;0.60;;;-2.40;99.90;;;;;;5048577;28;20214;-71
2022/12/11 00:53:14;;;;;;;1.02;1.02;;;-2.30;99.90;;;;;;5048349;28;20228;-70
2022/12/11 00:55:42;;;;;;;1.85;1.58;;;-2.30;99.90;;;;;;5047282;28;20275;-71
2022/12/11 00:58:10;;;;;;;2.10;1.70;;;-2.30;99.90;;;;;;5047998;28;20287;-72
2022/12/11 01:00:37;;;;;;;1.98;1.67;;;-2.30;99.90;;;;;;5046810;28;20201;-71
2022/12/11 01:03:05;;;;;;;1.05;1.05;;;-2.30;99.90;;;;;;5048026;28;20749;-70
2022/12/11 01:05:32;;;;;;;0.80;0.80;;;-2.20;99.90;;;;;;5046924;28;20200;-70
2022/12/11 01:08:00;;;;;;;2.80;2.60;;;-2.10;99.90;;;;;;5047452;28;20212;-70
2022/12/11 01:10:26;;;;;;;0.95;0.95;;;-2.00;99.90;;;;;;5047940;28;20194;-70
2022/12/11 01:12:56;;;;;;;4.25;3.90;;;-2.00;99.90;;;;;;5047202;28;20242;-71
2022/12/11 01:15:25;;;;;;;0.50;0.50;;;-1.90;99.90;;;;;;5048045;28;20200;-70
2022/12/11 01:17:52;;;;;;;1.88;1.77;;;-1.80;99.90;;;;;;5047178;28;20192;-71
2022/12/11 01:20:20;;;;;;;2.75;2.55;;;-1.80;99.90;;;;;;5048249;28;20200;-71
2022/12/11 01:22:47;;;;;;;1.60;1.50;;;-1.70;99.90;;;;;;5047716;28;20215;-71
2022/12/11 01:25:15;;;;;;;0.68;0.68;;;-1.70;99.90;;;;;;5047465;28;20206;-70
2022/12/11 01:27:42;;;;;;;11.60;3.08;;;-1.70;99.90;;;;;;5046161;28;20631;-70
2022/12/11 01:30:10;;;;;;;2.30;2.10;;;-1.70;99.90;;;;;;5047935;28;20285;-70
2022/12/11 01:32:37;;;;;;;2.15;1.88;;;-1.60;99.90;;;;;;5047523;28;20726;-71
2022/12/11 01:35:05;;;;;;;3.25;2.97;;;-1.60;99.90;;;;;;5047753;28;20273;-70
2022/12/11 01:37:31;;;;;;;1.80;1.77;;;-1.50;99.90;;;;;;5047155;28;20281;-70
2022/12/11 01:39:58;;;;;;;2.28;2.17;;;-1.40;99.90;;;;;;5047145;28;20840;-71
2022/12/11 01:42:28;;;;;;;0.80;0.80;;;-1.40;99.90;;;;;;5047114;28;20206;-70
2022/12/11 01:45:35;;;;;;;3.08;1.52;;;-1.30;99.90;;;;;;5047586;28;20198;-70
2022/12/11 01:48:07;;;;;;;2.70;2.50;;;-1.20;99.90;;;;;;5047018;28;20204;-70
2022/12/11 01:50:38;;;;;;;2.55;2.42;;;-1.20;99.90;;;;;;5046989;28;20210;-70
2022/12/11 01:53:08;;;;;;;3.95;3.58;;;-1.20;99.90;;;;;;5047568;28;20228;-70
2022/12/11 01:55:37;;;;;;;2.60;1.67;;;-1.10;99.90;;;;;;5047206;28;20202;-70
2022/12/11 01:58:06;;;;;;;1.73;1.63;;;-1.20;99.90;;;;;;5038515;28;20203;-70
2022/12/11 02:00:33;;;;;;;0.77;0.77;;;-1.10;99.90;;;;;;5044257;28;20210;-70
2022/12/11 02:03:00;;;;;;;5.38;4.10;;;-1.10;99.90;;;;;;5045717;28;20204;-70
2022/12/11 02:05:26;;;;;;;3.33;3.03;;;-1.10;99.90;;;;;;5046453;28;20199;-72
2022/12/11 02:07:57;;;;;;;1.83;1.73;;;-0.60;99.90;;;;;;5045192;28;20206;-71
2022/12/11 02:10:39;;;;;;;3.15;2.03;;;-1.10;99.90;;;;;;5047384;28;20201;-70
2022/12/11 02:13:15;;;;;;;5.90;4.30;;;-1.10;99.90;;;;;;5047182;28;20317;-70
2022/12/11 02:15:49;;;;;;;2.63;1.27;;;-1.10;99.90;;;;;;5047429;28;20225;-71
2022/12/11 02:18:25;;;;;;;1.05;1.05;;;-1.10;99.90;;;;;;5050929;28;20199;-70
2022/12/11 02:20:58;;;;;;;2.97;2.78;;;-1.00;99.90;;;;;;5051149;28;20211;-70
2022/12/11 02:23:53;;;;;;;2.40;2.08;;;-1.00;99.90;;;;;;5050832;28;20229;-69
2022/12/11 02:26:40;;;;;;;1.70;1.60;;;-0.90;99.90;;;;;;5050123;28;20196;-70
2022/12/11 02:29:13;;;;;;;4.15;2.88;;;-1.00;99.90;;;;;;5051071;28;20210;-71
2022/12/11 02:31:45;;;;;;;4.05;3.47;;;-0.90;99.90;;;;;;5050853;28;20234;-70
2022/12/11 02:34:18;;;;;;;3.17;2.85;;;-0.90;99.90;;;;;;5050636;28;20200;-71
2022/12/11 02:36:50;;;;;;;1.05;1.02;;;-0.90;99.90;;;;;;5050393;28;20204;-70
2022/12/11 02:39:21;;;;;;;1.25;1.15;;;-0.90;99.90;;;;;;5050387;28;20259;-70
2022/12/11 02:41:51;;;;;;;2.15;1.15;;;-0.90;99.90;;;;;;5050365;28;20196;-70
2022/12/11 02:44:24;;;;;;;1.50;1.50;;;-0.80;99.90;;;;;;5050542;28;20789;-70
2022/12/11 02:46:53;;;;;;;2.78;2.47;;;-0.80;99.90;;;;;;5049486;28;20202;-70
2022/12/11 02:49:22;;;;;;;5.22;4.93;;;-0.80;99.90;;;;;;5034676;28;20283;-71
2022/12/11 02:51:52;;;;;;;8.80;1.75;;;-0.90;99.90;;;;;;5050534;28;20310;-70
2022/12/11 02:54:25;;;;;;;2.00;1.90;;;-0.90;99.90;;;;;;5050517;28;20558;-69
2022/12/11 02:56:58;;;;;;;1.70;1.60;;;-0.90;99.90;;;;;;5049437;28;20207;-70
2022/12/11 02:59:33;;;;;;;2.70;1.30;;;-0.80;99.90;;;;;;5049886;28;20210;-70
2022/12/11 03:02:00;;;;;;;1.50;1.40;;;-0.80;99.90;;;;;;5049882;28;20200;-70
2022/12/11 03:04:28;;;;;;;1.30;0.95;;;-0.80;99.90;;;;;;5050585;28;20203;-70
2022/12/11 03:06:58;;;;;;;3.53;2.90;;;-0.80;99.90;;;;;;5049684;28;20466;-70
2022/12/11 03:09:25;;;;;;;3.70;1.60;;;-0.90;99.90;;;;;;5049846;28;20563;-70
2022/12/11 03:11:53;;;;;;;1.88;1.77;;;-0.80;99.90;;;;;;5049009;28;20242;-70
2022/12/11 03:14:21;;;;;;;0.98;0.98;;;-0.80;99.90;;;;;;5049732;28;20853;-70
2022/12/11 03:16:55;;;;;;;1.20;1.05;;;-0.70;99.90;;;;;;5049477;28;20207;-70
2022/12/11 03:19:31;;;;;;;1.95;1.70;;;-0.70;99.90;;;;;;5050355;28;20294;-69
2022/12/11 03:22:08;;;;;;;2.00;1.90;;;-0.70;99.90;;;;;;5049862;28;20304;-70
2022/12/11 03:24:41;;;;;;;1.33;1.25;;;-0.70;99.90;;;;;;5037902;28;20257;-70
2022/12/11 03:27:17;;;;;;;0.77;0.77;;;-0.80;99.90;;;;;;5048212;28;20192;-70
2022/12/11 03:29:53;;;;;;;0.68;0.68;;;-0.80;99.90;;;;;;5049727;28;20209;-70
2022/12/11 03:32:26;;;;;;;0.85;0.85;;;-0.80;99.90;;;;;;5049877;28;20694;-70
2022/12/11 03:34:59;;;;;;;1.63;1.17;;;-0.80;99.90;;;;;;5049592;28;20196;-69
2022/12/11 03:37:32;;;;;;;0.50;0.50;;;-0.70;99.90;;;;;;5048975;28;20571;-71
2022/12/11 03:40:05;;;;;;;1.65;0.75;;;-0.70;99.90;;;;;;5049459;28;20218;-70
2022/12/11 03:42:34;;;;;;;2.45;1.88;;;-0.70;99.90;;;;;;5049440;28;20257;-69
2022/12/11 03:45:04;;;;;;;2.10;1.70;;;-0.70;99.90;;;;;;5048918;28;20248;-70
2022/12/11 03:47:34;;;;;;;2.67;2.47;;;-0.70;99.90;;;;;;5049068;28;20294;-70
2022/12/11 03:50:03;;;;;;;2.60;1.92;;;-0.70;99.90;;;;;;5049498;28;20398;-71
2022/12/11 03:52:33;;;;;;;2.22;1.88;;;-0.80;99.90;;;;;;5049711;28;20224;-70
2022/12/11 03:55:04;;;;;;;1.38;1.38;;;-0.70;99.90;;;;;;5049285;28;20207;-70
2022/12/11 03:57:35;;;;;;;1.88;1.77;;;-0.70;99.90;;;;;;5048296;28;20215;-71
2022/12/11 04:00:06;;;;;;;1.80;1.70;;;-0.70;99.90;;;;;;5049158;28;20219;-70
2022/12/11 04:02:34;;;;;;;5.78;3.58;;;-0.70;99.90;;;;;;5048849;28;20995;-70
2022/12/11 04:05:01;;;;;;;1.73;1.50;;;-0.70;99.90;;;;;;5049303;28;20232;-70
2022/12/11 04:07:30;;;;;;;2.03;1.92;;;-0.70;99.90;;;;;;5048583;28;20705;-70
2022/12/11 04:09:56;;;;;;;0.80;0.73;;;-0.90;99.90;;;;;;5048958;28;20558;-70
2022/12/11 04:12:23;;;;;;;1.20;1.10;;;-0.90;99.90;;;;;;5048881;28;20230;-70
2022/12/11 04:15:01;;;;;;;2.08;1.90;;;-0.90;99.90;;;;;;5049116;28;20200;-70
2022/12/11 04:25:43;;;;;;;5.28;1.63;;;-0.90;99.90;;;;;;5048257;28;20631;-71
2022/12/11 04:28:10;;;;;;;2.38;2.28;;;-0.90;99.90;;;;;;5048526;28;20196;-70
2022/12/11 04:30:37;;;;;;;2.70;1.92;;;-0.90;99.90;;;;;;5048504;28;20196;-70
2022/12/11 04:33:04;;;;;;;0.70;0.70;;;-1.10;99.90;;;;;;5047548;28;20224;-70
2022/12/11 04:35:32;;;;;;;1.95;1.25;;;-1.00;99.90;;;;;;5048217;28;20208;-70
2022/12/11 04:38:00;;;;;;;6.65;1.83;;;-0.90;99.90;;;;;;5048415;28;20206;-70
2022/12/11 04:40:27;;;;;;;2.35;2.13;;;-1.00;99.90;;;;;;5048577;28;20200;-70
2022/12/11 04:42:53;;;;;;;1.13;1.13;;;-0.90;99.90;;;;;;5048475;28;20235;-70
2022/12/11 04:45:20;;;;;;;1.95;1.85;;;-1.00;99.90;;;;;;5048108;28;20230;-70
2022/12/11 04:47:47;;;;;;;1.65;1.30;;;-0.90;99.90;;;;;;5047515;28;20200;-70
2022/12/11 04:50:15;;;;;;;2.85;1.67;;;-0.90;99.90;;;;;;5048558;28;20207;-70
2022/12/11 04:52:43;;;;;;;0.95;0.95;;;-1.10;99.90;;;;;;5048163;28;20229;-70
2022/12/11 04:55:11;;;;;;;3.03;2.83;;;-1.10;99.90;;;;;;5048302;28;20192;-70
2022/12/11 04:57:38;;;;;;;2.22;2.13;;;-1.20;99.90;;;;;;5047662;28;20197;-71
2022/12/11 05:00:08;;;;;;;10.38;2.65;;;-1.10;99.90;;;;;;5047889;28;20206;-71
2022/12/11 05:02:36;;;;;;;1.40;1.40;;;-1.10;99.90;;;;;;5047982;28;20213;-70
2022/12/11 05:05:04;;;;;;;2.80;1.30;;;-1.00;99.90;;;;;;5048453;28;20258;-70
2022/12/11 05:07:31;;;;;;;1.02;1.02;;;-1.00;99.90;;;;;;5047646;28;20293;-70
2022/12/11 05:09:59;;;;;;;2.38;1.45;;;-1.00;99.90;;;;;;5047819;28;20191;-70
2022/12/11 05:12:26;;;;;;;12.60;2.63;;;-1.00;99.90;;;;;;5047748;28;20241;-71
2022/12/11 05:14:53;;;;;;;4.28;2.65;;;-0.90;99.90;;;;;;5047153;28;20328;-70
2022/12/11 05:17:20;;;;;;;1.95;1.85;;;-0.90;99.90;;;;;;5047348;28;20205;-70
2022/12/11 05:19:47;;;;;;;1.85;1.55;;;-1.00;99.90;;;;;;5047385;28;20200;-70
2022/12/11 05:22:14;;;;;;;2.38;2.17;;;-1.10;99.90;;;;;;5048419;28;20210;-71
2022/12/11 05:24:41;;;;;;;1.80;1.40;;;-1.00;99.90;;;;;;5047746;28;20207;-70
2022/12/11 05:27:10;;;;;;;1.95;1.65;;;-1.00;99.90;;;;;;5046401;28;20192;-70
2022/12/11 05:29:37;;;;;;;1.63;1.52;;;-1.00;99.90;;;;;;5047826;28;20597;-71
2022/12/11 05:32:04;;;;;;;1.60;1.50;;;-1.00;99.90;;;;;;5047720;28;20206;-70
2022/12/11 05:34:31;;;;;;;1.05;0.90;;;-1.00;99.90;;;;;;5047408;28;20227;-71
2022/12/11 05:36:58;;;;;;;4.28;2.92;;;-0.90;99.90;;;;;;5046799;28;20579;-70
2022/12/11 05:39:25;;;;;;;2.05;1.95;;;-0.90;99.90;;;;;;5047609;28;20210;-69
2022/12/11 05:41:52;;;;;;;1.73;1.63;;;-1.00;99.90;;;;;;5047107;28;20215;-69
2022/12/11 05:44:20;;;;;;;0.93;0.93;;;-0.90;99.90;;;;;;5047419;28;20294;-69
2022/12/11 05:46:47;;;;;;;2.42;2.33;;;-1.00;99.90;;;;;;5047233;28;20203;-70
2022/12/11 05:49:13;;;;;;;5.20;1.63;;;-1.10;99.90;;;;;;5047387;28;20200;-70
2022/12/11 05:51:42;;;;;;;1.52;1.27;;;-1.10;99.90;;;;;;5046885;28;20210;-70
2022/12/11 05:54:09;;;;;;;2.10;1.90;;;-1.10;99.90;;;;;;5046889;28;20227;-70
2022/12/11 05:56:37;;;;;;;2.85;1.55;;;-1.20;99.90;;;;;;5046581;28;20823;-70
2022/12/11 05:59:05;;;;;;;2.42;2.33;;;-1.40;99.90;;;;;;5047580;28;20198;-70
2022/12/11 06:01:35;;;;;;;1.27;1.23;;;-1.50;99.90;;;;;;5046884;28;20724;-69
2022/12/11 06:04:04;;;;;;;1.05;1.05;;;-1.80;99.90;;;;;;5047052;28;20222;-70
2022/12/11 06:06:32;;;;;;;0.90;0.90;;;-2.00;99.90;;;;;;5046752;28;20688;-70
2022/12/11 06:08:59;;;;;;;4.40;3.50;;;-1.70;99.90;;;;;;5045790;28;20203;-70
2022/12/11 06:11:29;;;;;;;12.18;4.55;;;-1.90;99.90;;;;;;5047439;28;20640;-70
2022/12/11 06:13:56;;;;;;;6.05;2.45;;;-1.90;99.90;;;;;;5046744;28;20263;-70
2022/12/11 06:16:24;;;;;;;0.52;0.52;;;-2.00;99.90;;;;;;5046402;28;20641;-70
2022/12/11 06:18:52;;;;;;;1.30;1.20;;;-2.00;99.90;;;;;;5046610;28;20284;-70
2022/12/11 06:21:21;;;;;;;1.45;1.45;;;-2.10;99.90;;;;;;5046646;28;20204;-71
2022/12/11 06:23:50;;;;;;;1.17;1.17;;;-2.10;99.90;;;;;;5045566;28;20253;-70
2022/12/11 06:26:17;;;;;;;2.33;2.20;;;-2.10;99.90;;;;;;5045762;28;20197;-70
2022/12/11 06:28:45;;;;;;;4.43;2.35;;;-2.10;99.90;;;;;;5046235;28;20200;-70
2022/12/11 06:31:12;;;;;;;1.50;1.40;;;-2.10;99.90;;;;;;5045905;28;20687;-70
2022/12/11 06:33:39;;;;;;;1.60;1.50;;;-2.10;99.90;;;;;;5046660;28;20221;-71
2022/12/11 06:36:10;;;;;;;1.58;1.48;;;-2.20;99.90;;;;;;5044934;28;20284;-70
2022/12/11 06:38:37;;;;;;;2.35;1.67;;;-2.30;99.90;;;;;;5043252;28;20201;-70
2022/12/11 06:41:05;;;;;;;1.00;0.90;;;-2.30;99.90;;;;;;5042777;28;20201;-70
2022/12/11 06:43:32;;;;;;;3.03;2.10;;;-2.30;99.90;;;;;;5045739;28;20288;-70
2022/12/11 06:45:59;;;;;;;1.70;1.60;;;-2.30;99.90;;;;;;5045440;28;20208;-71
2022/12/11 06:48:26;;;;;;;1.63;1.52;;;-2.40;99.90;;;;;;5044684;28;20538;-70
2022/12/11 06:50:53;;;;;;;3.13;2.92;;;-2.40;99.90;;;;;;5046311;28;20190;-70
2022/12/11 06:53:21;;;;;;;0.55;0.55;;;-2.40;99.90;;;;;;5046143;28;20230;-70
2022/12/11 06:55:48;;;;;;;2.10;1.83;;;-2.40;99.90;;;;;;5044227;28;20220;-69
2022/12/11 06:58:15;;;;;;;1.15;1.10;;;-2.40;99.90;;;;;;5046548;28;20197;-69
2022/12/11 07:00:42;;;;;;;1.60;1.50;;;;;;;;;;5045705;28;20266;-70
2022/12/11 07:03:10;;;;;;;2.85;2.65;;;-2.50;99.90;;;;;;5047938;28;20193;-70
2022/12/11 07:05:37;;;;;;;1.33;1.33;;;-2.40;99.90;;;;;;5048872;28;20663;-70
2022/12/11 07:08:03;;;;;;;1.02;1.02;;;-2.40;99.90;;;;;;5048033;28;20596;-70
2022/12/11 07:10:32;;;;;;;3.08;2.15;;;-2.40;99.90;;;;;;5049225;28;20203;-70
2022/12/11 07:12:59;;;;;;;0.95;0.93;;;-2.40;99.90;;;;;;5045622;28;20311;-70
2022/12/11 07:15:26;;;;;;;2.22;1.83;;;-2.30;99.90;;;;;;5048961;28;20195;-70
2022/12/11 07:17:53;;;;;;;1.90;1.90;;;-2.20;99.90;;;;;;5049040;28;20197;-70
2022/12/11 07:20:20;;;;;;;2.63;2.45;;;-2.20;99.90;;;;;;5049215;28;20207;-69
2022/12/11 07:22:46;;;;;;;2.95;2.13;;;-2.30;99.90;;;;;;5049649;28;20199;-70
2022/12/11 07:25:14;;;;;;;1.17;1.15;;;-2.30;99.90;;;;;;5049290;28;20636;-70
2022/12/11 07:27:42;;;;;;;2.45;2.35;;;-2.30;99.90;;;;;;5048648;28;20204;-70
2022/12/11 07:30:10;;;;;;;1.70;1.60;;;-2.20;99.90;;;;;;5048789;28;20194;-70
2022/12/11 07:32:37;;;;;;;0.70;0.70;;;-2.40;99.90;;;;;;5049059;28;20722;-71
2022/12/11 07:35:05;;;;;;;2.88;2.67;;;-2.40;99.90;;;;;;5048574;28;20226;-70
2022/12/11 07:37:32;;;;;;;2.03;1.92;;;;;;;;;;5048687;28;20203;-70
2022/12/11 07:39:59;;;;;;;3.80;2.38;;;-2.40;99.90;;;;;;5046246;28;20561;-70
2022/12/11 07:42:25;;;;;;;1.77;1.67;;;-2.40;99.90;;;;;;5048771;28;20197;-70
2022/12/11 07:44:54;;;;;;;1.95;1.77;;;-2.30;99.90;;;;;;5048335;28;20204;-70
2022/12/11 07:47:21;;;;;;;1.95;1.85;;;;;;;;;;5048055;28;20639;-70
2022/12/11 07:49:48;;;;;;;2.90;2.28;;;-2.20;99.90;;;;;;5048884;28;20213;-70
2022/12/11 07:52:15;;;;;;;0.80;0.80;;;-2.20;99.90;;;;;;5049042;28;20201;-69
2022/12/11 07:54:42;;;;;;;2.08;1.98;;;-2.20;99.90;;;;;;5048780;28;20342;-70
2022/12/11 07:57:09;;;;;;;1.48;1.35;;;-2.20;99.90;;;;;;5047785;28;20200;-70
2022/12/11 07:59:35;;;;;;;3.15;1.52;;;-2.20;99.90;;;;;;5049161;28;20673;-70
2022/12/11 08:02:03;;;;;;;1.30;1.30;;;-2.10;99.90;;;;;;5049058;28;20573;-70
2022/12/11 08:04:30;;;;;;;2.50;2.30;;;-2.00;99.90;;;;;;5049150;28;20306;-71
2022/12/11 08:06:58;;;;;;;2.55;2.35;;;-2.00;99.90;;;;;;5048480;28;20567;-70
2022/12/11 08:09:24;;;;;;;1.63;1.52;;;-1.90;99.90;;;;;;5049382;28;20283;-70
2022/12/11 08:11:52;;;;;;;3.90;1.90;;;-1.90;99.90;;;;;;5048427;28;20213;-70
2022/12/11 08:14:19;;;;;;;1.45;1.42;;;-1.70;99.90;;;;;;5048095;28;20224;-70
2022/12/11 08:16:46;;;;;;;1.73;1.65;;;-1.70;99.90;;;;;;5037684;28;20194;-71
2022/12/11 08:19:15;;;;;;;3.67;3.30;;;-1.60;99.90;;;;;;5048897;28;20213;-70
2022/12/11 08:21:42;;;;;;;3.30;1.58;;;-1.50;99.90;;;;;;5048517;28;20191;-70
2022/12/11 08:24:09;;;;;;;0.95;0.95;;;-1.40;99.90;;;;;;5048581;28;20205;-71
2022/12/11 08:26:36;;;;;;;1.10;1.10;;;-1.30;99.90;;;;;;5047660;28;20665;-71
2022/12/11 08:29:03;;;;;;;1.85;1.75;;;-1.20;99.90;;;;;;5047993;28;20277;-70
2022/12/11 08:31:30;;;;;;;1.77;1.15;;;-1.20;99.90;;;;;;5048720;28;20596;-70
2022/12/11 08:33:57;;;;;;;2.95;2.70;;;-1.20;99.90;;;;;;5048674;28;20215;-70
2022/12/11 08:36:26;;;;;;;3.30;2.08;;;-1.20;99.90;;;;;;5047531;28;20549;-70
2022/12/11 08:38:54;;;;;;;2.90;2.30;;;-1.10;99.90;;;;;;5047988;28;20579;-70
2022/12/11 08:41:23;;;;;;;1.60;1.50;;;-1.00;99.90;;;;;;5048118;28;20210;-70
2022/12/11 08:43:53;;;;;;;10.57;3.95;;;-0.80;99.90;;;;;;5048236;28;20200;-71
2022/12/11 08:46:21;;;;;;;3.60;2.65;;;-0.70;99.90;;;;;;5047720;28;20260;-70
2022/12/11 08:48:48;;;;;;;2.83;2.25;;;-0.80;99.90;;;;;;5048707;28;20202;-71
2022/12/11 08:51:17;;;;;;;1.35;1.25;;;-0.70;99.90;;;;;;5048041;28;20676;-70
2022/12/11 08:53:45;;;;;;;1.15;1.15;;;-0.70;99.90;;;;;;5048549;28;20230;-70
2022/12/11 08:56:14;;;;;;;2.60;2.45;;;-0.90;99.70;;;;;;5047392;28;20214;-71
2022/12/11 08:58:42;;;;;;;1.60;1.45;;;-0.90;99.70;;;;;;5048413;28;20594;-71
2022/12/11 09:01:11;;;;;;;4.93;2.88;;;-0.80;99.70;;;;;;5048136;28;20192;-70
2022/12/11 09:03:38;;;;;;;1.25;1.25;;;-0.90;99.70;;;;;;5047819;28;20231;-70
2022/12/11 09:06:06;;;;;;;1.23;1.13;;;-0.80;99.90;;;;;;5047287;28;20196;-71
2022/12/11 09:08:33;;;;;;;2.83;2.38;;;-0.70;99.90;;;;;;5048042;28;20290;-71
2022/12/11 09:11:05;;;;;;;2.58;2.38;;;-0.60;99.90;;;;;;5047942;28;20195;-71
2022/12/11 09:13:32;;;;;;;1.05;0.95;;;-0.50;99.90;;;;;;5047878;28;20219;-71
2022/12/11 09:15:59;;;;;;;6.78;3.13;;;-0.50;99.90;;;;;;5047305;28;20204;-70
2022/12/11 09:18:26;;;;;;;7.35;2.05;;;-0.40;99.90;;;;;;5047533;28;20215;-70
2022/12/11 09:21:00;;;;;;;11.07;4.60;;;-0.30;99.90;;;;;;5047556;28;20315;-70
2022/12/11 09:23:27;;;;;;;2.50;2.40;;;-0.20;99.50;;;;;;5047986;28;20204;-71
2022/12/11 09:25:54;;;;;;;1.67;1.58;;;-0.20;99.40;;;;;;5046440;28;20196;-71
2022/12/11 09:28:23;;;;;;;3.85;3.47;;;-0.10;99.60;;;;;;5047893;28;20224;-72
2022/12/11 09:30:50;;;;;;;2.35;1.90;;;-0.10;99.40;;;;;;5047290;28;20225;-71
2022/12/11 09:33:17;;;;;;;2.35;2.25;;;0.00;99.20;;;;;;5048121;28;20197;-70
2022/12/11 09:35:44;;;;;;;3.80;3.50;;;-0.10;99.00;;;;;;5046299;28;20255;-71
2022/12/11 09:38:10;;;;;;;3.53;3.20;;;0.00;99.20;;;;;;5047796;28;20196;-71
2022/12/11 09:40:42;;;;;;;5.28;2.63;;;0.00;99.00;;;;;;5047223;28;20373;-71
2022/12/11 09:43:20;;;;;;;2.15;1.38;;;0.00;99.10;;;;;;5047545;28;20206;-70
2022/12/11 09:45:50;;;;;;;1.38;1.25;;;0.10;99.20;;;;;;5047187;28;20204;-71
2022/12/11 09:48:22;;;;;;;2.58;2.38;;;0.10;99.20;;;;;;5047699;28;20206;-71
2022/12/11 09:50:51;;;;;;;3.05;2.85;;;0.10;99.30;;;;;;5046976;28;20206;-70
2022/12/11 09:53:25;;;;;;;2.95;1.98;;;0.20;99.10;;;;;;5047331;28;20199;-71
2022/12/11 09:56:04;;;;;;;1.67;1.58;;;0.30;98.90;;;;;;5046374;28;20206;-71
2022/12/11 09:58:39;;;;;;;4.68;2.13;;;0.40;98.70;;;;;;5047471;28;20282;-70
2022/12/11 10:01:14;;;;;;;3.88;3.58;;;0.40;98.60;;;;;;5047325;28;20290;-71
2022/12/11 10:04:21;;;;;;;2.97;2.50;;;0.40;98.40;;;;;;5047229;28;20191;-70
2022/12/11 10:06:58;;;;;;;3.45;1.00;;;0.40;98.20;;;;;;5010082;28;20203;-70
2022/12/11 10:09:30;;;;;;;3.10;2.05;;;0.50;97.90;;;;;;5047459;28;20283;-70
2022/12/11 10:12:08;;;;;;;2.03;1.92;;;0.50;97.90;;;;;;5047350;28;20198;-71
2022/12/11 10:14:47;;;;;;;1.02;1.02;;;0.40;98.20;;;;;;5046570;28;20797;-70
2022/12/11 10:17:20;;;;;;;1.65;1.55;;;0.50;98.40;;;;;;5046545;28;20210;-70
2022/12/11 10:19:47;;;;;;;4.75;2.38;;;0.60;97.90;;;;;;5047130;28;20210;-70
2022/12/11 10:22:20;;;;;;;1.30;1.20;;;0.60;97.90;;;;;;5043698;28;20289;-71
2022/12/11 10:24:54;;;;;;;1.98;1.27;;;0.60;97.70;;;;;;5046988;28;20204;-71
2022/12/11 10:27:23;;;;;;;3.10;1.98;;;0.80;99.90;;;;;;5046814;28;20204;-71
2022/12/11 10:30:00;;;;;;;2.35;1.60;;;0.70;97.30;;;;;;5047067;28;20207;-70
2022/12/11 10:32:36;;;;;;;1.45;1.35;;;1.00;96.60;;;;;;5032440;28;20200;-70
2022/12/11 10:35:06;;;;;;;2.55;2.28;;;0.80;96.30;;;;;;5046949;28;20216;-70
2022/12/11 10:37:33;;;;;;;2.75;2.35;;;0.70;99.90;;;;;;5048358;28;20202;-70
2022/12/11 10:39:59;;;;;;;2.80;2.60;;;0.80;97.50;;;;;;5050448;28;20661;-71
2022/12/11 10:42:26;;;;;;;4.20;2.08;;;0.70;97.20;;;;;;5050890;28;20628;-70
2022/12/11 10:44:58;;;;;;;2.40;1.60;;;0.80;97.20;;;;;;5050714;28;20808;-70
2022/12/11 10:47:25;;;;;;;4.18;2.85;;;0.80;97.20;;;;;;5049797;28;20196;-71
2022/12/11 10:49:57;;;;;;;3.92;2.63;;;0.80;97.60;;;;;;5050534;28;20200;-70
2022/12/11 10:52:26;;;;;;;1.25;1.10;;;0.70;99.90;;;;;;5050492;28;20685;-71
2022/12/11 10:55:00;;;;;;;2.90;2.45;;;0.70;96.80;;;;;;5050676;28;20223;-70
2022/12/11 10:57:29;;;;;;;3.28;2.03;;;0.70;97.10;;;;;;5050315;28;20204;-70
2022/12/11 10:59:56;;;;;;;2.97;2.50;;;0.90;96.80;;;;;;5050295;28;20196;-70
2022/12/11 11:02:25;;;;;;;5.80;3.13;;;1.00;96.30;;;;;;5050482;28;20198;-70
2022/12/11 11:04:54;;;;;;;3.00;1.90;;;0.80;99.90;;;;;;5050048;28;20239;-71
2022/12/11 11:07:23;;;;;;;3.08;1.83;;;0.80;96.80;;;;;;5049450;28;20204;-71
2022/12/11 11:09:53;;;;;;;2.42;2.22;;;0.70;96.40;;;;;;5050355;28;20199;-71
2022/12/11 11:12:23;;;;;;;2.75;2.42;;;0.80;97.00;;;;;;5050096;28;20202;-70
2022/12/11 11:15:00;;;;;;;0.85;0.85;;;0.90;96.90;;;;;;5049772;28;20269;-70
2022/12/11 11:17:27;;;;;;;2.90;2.20;;;0.90;96.60;;;;;;5049732;28;20199;-71
2022/12/11 11:19:59;;;;;;;0.98;0.98;;;1.00;96.70;;;;;;5050057;28;20196;-70
2022/12/11 11:22:27;;;;;;;0.68;0.68;;;1.00;96.60;;;;;;5050092;28;20214;-71
2022/12/11 11:24:57;;;;;;;1.75;1.65;;;1.00;96.80;;;;;;5033797;28;20192;-71
2022/12/11 11:27:30;;;;;;;2.38;2.22;;;1.00;96.80;;;;;;5049358;28;20298;-70
2022/12/11 11:30:00;;;;;;;5.00;3.03;;;1.00;99.90;;;;;;5049822;28;20554;-71
2022/12/11 11:32:32;;;;;;;1.70;1.33;;;1.00;99.90;;;;;;5049963;28;20200;-71
2022/12/11 11:35:18;;;;;;;1.83;1.73;;;1.00;97.00;;;;;;5049393;28;20223;-71
2022/12/11 11:37:47;;;;;;;1.10;1.10;;;1.10;97.10;;;;;;5047968;28;20226;-70
2022/12/11 11:40:19;;;;;;;2.95;1.67;;;1.20;99.90;;;;;;5049150;28;20207;-71
2022/12/11 11:42:52;;;;;;;1.55;1.27;;;1.10;96.90;;;;;;5049931;28;20202;-71
2022/12/11 11:45:24;;;;;;;2.00;1.23;;;1.00;96.80;;;;;;5050147;28;20193;-71
2022/12/11 11:48:00;;;;;;;5.00;3.72;;;1.00;97.20;;;;;;5048264;28;20663;-71
2022/12/11 11:50:33;;;;;;;2.50;2.30;;;1.00;97.20;;;;;;5049162;28;20204;-71
2022/12/11 11:53:04;;;;;;;2.08;1.88;;;1.00;97.50;;;;;;5049592;28;20196;-71
2022/12/11 11:55:41;;;;;;;2.13;2.03;;;1.10;97.30;;;;;;5048960;28;20228;-71
2022/12/11 11:58:14;;;;;;;2.63;1.80;;;1.10;97.50;;;;;;5050037;28;20265;-71
2022/12/11 12:00:41;;;;;;;1.40;0.98;;;0.90;99.90;;;;;;5048953;28;20208;-70
2022/12/11 12:03:11;;;;;;;1.05;1.05;;;1.00;97.50;;;;;;5034063;28;20604;-71
2022/12/11 12:05:49;;;;;;;2.60;1.52;;;1.00;97.40;;;;;;5048646;28;20208;-71
2022/12/11 12:08:28;;;;;;;1.98;1.88;;;1.00;97.40;;;;;;5048986;28;20206;-71
2022/12/11 12:11:01;;;;;;;1.08;1.00;;;0.90;97.40;;;;;;5034308;28;20196;-71
2022/12/11 12:13:38;;;;;;;2.75;1.67;;;0.90;97.80;;;;;;5048668;28;20977;-70
2022/12/11 12:16:10;;;;;;;2.88;2.65;;;1.00;97.70;;;;;;5048692;28;20230;-71
2022/12/11 12:18:46;;;;;;;11.70;2.97;;;1.00;97.90;;;;;;5048794;28;20200;-71
2022/12/11 12:21:24;;;;;;;2.47;1.98;;;1.00;98.00;;;;;;5049086;28;20206;-71
2022/12/11 12:24:02;;;;;;;2.55;2.05;;;0.90;97.80;;;;;;5048624;28;20196;-71
2022/12/11 12:26:32;;;;;;;1.30;1.30;;;1.00;97.80;;;;;;5048561;28;20204;-71
2022/12/11 12:29:12;;;;;;;2.00;1.80;;;1.10;98.40;;;;;;5049067;28;20717;-71
2022/12/11 12:31:50;;;;;;;1.73;1.63;;;1.10;98.40;;;;;;5048931;28;20192;-71
2022/12/11 12:34:27;;;;;;;1.58;1.40;;;1.20;98.20;;;;;;5048363;28;20203;-71
2022/12/11 12:37:02;;;;;;;4.18;3.88;;;1.20;98.10;;;;;;5038099;28;20215;-71
2022/12/11 12:39:39;;;;;;;2.17;1.98;;;1.20;97.90;;;;;;5048527;28;20195;-71
2022/12/11 12:42:16;;;;;;;1.70;1.52;;;1.30;97.80;;;;;;5048748;28;20204;-71
2022/12/11 12:44:53;;;;;;;0.95;0.95;;;2.10;99.90;;;;;;5032348;28;20223;-71
2022/12/11 12:47:22;;;;;;;3.47;2.42;;;1.40;97.70;;;;;;5048258;28;20206;-71
2022/12/11 12:49:50;;;;;;;9.98;3.20;;;1.40;97.70;;;;;;5048672;28;20217;-71
2022/12/11 12:52:23;;;;;;;2.28;2.17;;;1.50;97.60;;;;;;5048265;28;20204;-71
2022/12/11 12:55:16;;;;;;;5.47;2.08;;;1.50;97.50;;;;;;5048009;28;20790;-71
2022/12/11 12:57:47;;;;;;;3.15;1.83;;;1.50;97.30;;;;;;5047886;28;20210;-71
2022/12/11 13:00:25;;;;;;;1.25;1.15;;;1.50;96.80;;;;;;5048363;28;20223;-71
2022/12/11 13:02:54;;;;;;;1.25;1.02;;;1.40;96.70;;;;;;5048166;28;20211;-71
2022/12/11 13:05:24;;;;;;;5.00;1.45;;;1.40;96.70;;;;;;5047384;28;20195;-71
2022/12/11 13:07:55;;;;;;;2.58;1.80;;;1.30;96.80;;;;;;5046997;28;20228;-71
2022/12/11 13:10:29;;;;;;;1.60;1.50;;;1.20;97.00;;;;;;5047998;28;20218;-70
2022/12/11 13:12:56;;;;;;;3.53;1.95;;;1.10;96.90;;;;;;5048356;28;20684;-71